Seagraves, Texas
Current Conditions -  °F | °C
As of 9:55 PM on Friday 24 Oct 2014 (Local Time) from KGNC Reporting Station
Clear Clear  
Wind Chill: 64°   Ceiling: Unl
Heat Index: 64°   Visibility: 10mi
Dew Point: 52°   Wind: 7mph
Humidity: 66%   Direction: 200°SSW
Pressure: 30.18"   Gusts: NA
Location:  32.94°N, 102.56°W
Report Text: KGNC 250255Z AUTO 20006KT 10SM CLR 18/11 A3018 RMK AO2 T01770113
Loading
Personal Weather Stations






























Interactive Weather Map
Tropical Storm Tracking
New forecast layout! Learn more

10-Day Weather Forecast

Advertisements
Track Severe Weather on mobile